Time;durP1;ratioP1;P1;durP2;ratioP2;P2;SDS_P1;SDS_P2;PMS_P1;PMS_P2;Temp;Humidity;BMP_temperature;BMP_pressure;BME280_temperature;BME280_humidity;BME280_pressure;Samples;Min_cycle;Max_cycle;Signal;HPM_P1;HPM_P2
2022/07/28 00:00:05;;;;;;;3.00;1.80;;;24.40;57.50;;;23.17;44.83;99949.34;10418273;27;96653;-89
2022/07/28 00:05:10;;;;;;;2.38;1.30;;;24.40;57.80;;;23.19;45.14;99947.19;10431377;27;97534;-89
2022/07/28 00:10:13;;;;;;;2.05;1.42;;;24.40;58.00;;;23.17;45.23;99938.50;10423197;27;98449;-90
2022/07/28 00:15:16;;;;;;;3.10;1.45;;;24.40;58.00;;;23.16;45.12;99932.25;10442986;27;97399;-88
2022/07/28 00:20:20;;;;;;;3.03;1.58;;;24.40;58.20;;;23.17;45.56;99922.22;10430763;27;96949;-88
2022/07/28 00:25:23;;;;;;;2.47;1.55;;;24.40;58.30;;;23.18;45.33;99923.88;10416152;27;96557;-89
2022/07/28 00:30:26;;;;;;;2.60;1.50;;;24.40;58.40;;;23.16;45.63;99918.72;10443429;27;96766;-90
2022/07/28 00:35:29;;;;;;;2.85;1.85;;;24.40;58.60;;;23.20;45.64;99927.94;10430551;27;96633;-90
2022/07/28 00:45:54;;;;;;;2.53;1.52;;;24.40;58.90;;;23.19;46.04;99923.59;10433483;27;98339;-90
2022/07/28 00:50:57;;;;;;;1.92;1.55;;;24.50;58.90;;;23.18;46.04;99929.28;10443011;27;96496;-89
2022/07/28 00:56:00;;;;;;;3.85;1.95;;;24.40;59.00;;;23.18;46.31;99921.16;10406873;27;98371;-90
2022/07/28 01:01:10;;;;;;;2.10;1.52;;;24.40;59.10;;;23.20;46.61;99919.81;10407412;27;96587;-90
2022/07/28 01:06:38;;;;;;;1.95;1.60;;;24.50;59.40;;;23.22;46.66;99916.84;10438813;27;96786;-89
2022/07/28 01:12:01;;;;;;;2.42;1.67;;;24.40;59.90;;;23.20;46.77;99911.66;10434314;27;96598;-89
2022/07/28 01:17:32;;;;;;;2.25;1.55;;;24.50;59.50;;;23.21;46.88;99926.88;10419587;27;98761;-88
2022/07/28 01:22:55;;;;;;;3.95;1.45;;;24.50;59.70;;;23.20;46.86;99932.53;10426734;27;97369;-90
2022/07/28 01:28:22;;;;;;;2.05;1.55;;;24.50;59.70;;;23.17;47.04;99923.03;10428506;27;96579;-89
2022/07/28 01:33:53;;;;;;;2.10;1.35;;;24.50;59.90;;;23.08;47.99;99940.84;10432709;27;96629;-88
2022/07/28 01:38:59;;;;;;;3.17;1.60;;;24.40;60.50;;;23.00;48.59;99935.06;10449956;27;96639;-89
2022/07/28 01:44:10;;;;;;;2.40;1.80;;;24.30;61.20;;;22.95;48.56;99930.41;10435453;27;96948;-89
2022/07/28 01:49:16;;;;;;;2.38;1.70;;;24.20;61.50;;;22.91;49.00;99927.41;10456368;27;98821;-89
2022/07/28 01:54:23;;;;;;;1.92;1.40;;;24.20;61.90;;;22.89;49.54;99931.44;10421671;27;97482;-89
2022/07/28 01:59:29;;;;;;;3.40;1.90;;;24.10;62.10;;;22.83;49.67;99925.13;10418432;28;96642;-89
2022/07/28 02:04:39;;;;;;;2.80;1.70;;;24.10;62.60;;;22.81;49.63;99932.69;10420645;27;98266;-89
2022/07/28 02:09:44;;;;;;;3.08;1.98;;;24.00;62.70;;;22.77;49.97;99925.31;10443470;27;97369;-89
2022/07/28 02:14:49;;;;;;;2.67;1.70;;;24.00;63.10;;;22.74;50.31;99928.53;10445254;27;96699;-88
2022/07/28 02:19:54;;;;;;;1.83;1.52;;;24.00;63.30;;;22.66;50.48;99930.63;10482748;27;96643;-88
2022/07/28 02:24:57;;;;;;;3.58;2.00;;;23.90;63.70;;;22.63;50.63;99925.72;10466742;27;97561;-88
2022/07/28 02:30:54;;;;;;;3.63;2.00;;;23.80;64.00;;;22.61;50.78;99925.16;10482469;27;98258;-89
2022/07/28 02:36:09;;;;;;;2.63;1.75;;;23.80;64.00;;;22.57;51.13;99936.75;10460723;27;96594;-88
2022/07/28 02:41:23;;;;;;;4.90;1.92;;;23.80;64.20;;;22.51;51.09;99932.34;10458514;27;96592;-88
2022/07/28 02:46:37;;;;;;;2.55;1.77;;;23.80;64.50;;;22.48;51.38;99938.25;10459690;27;96730;-87
2022/07/28 02:51:42;;;;;;;3.33;1.70;;;23.80;64.50;;;22.45;51.35;99936.88;10466230;27;96746;-87
2022/07/28 02:56:50;;;;;;;3.85;2.22;;;23.70;64.60;;;22.42;51.56;99942.78;10481477;27;97432;-87
2022/07/28 03:01:57;;;;;;;2.90;2.08;;;23.70;64.80;;;22.39;51.86;99949.53;10472009;27;97374;-88
2022/07/28 03:07:01;;;;;;;3.17;2.30;;;23.60;64.90;;;22.41;52.06;99951.97;10445667;27;96901;-87
2022/07/28 03:12:04;;;;;;;4.25;1.63;;;23.70;65.10;;;22.42;52.04;99957.13;10462199;27;96806;-87
2022/07/28 03:17:07;;;;;;;3.13;2.03;;;23.70;65.30;;;22.40;51.95;99959.28;10436412;27;96844;-87
2022/07/28 03:22:11;;;;;;;8.07;6.15;;;23.60;65.40;;;22.38;51.60;99949.78;10501054;27;96703;-87
2022/07/28 03:27:30;;;;;;;5.25;2.90;;;23.70;65.60;;;22.36;51.98;99965.44;10443970;27;96518;-87
2022/07/28 03:32:39;;;;;;;2.92;2.08;;;23.60;65.60;;;22.30;52.22;99956.44;10474258;27;96822;-88
2022/07/28 03:38:06;;;;;;;4.40;1.97;;;23.50;65.80;;;22.23;52.41;99966.63;10453605;27;97439;-87
2022/07/28 03:43:09;;;;;;;3.00;2.10;;;23.40;66.20;;;22.14;52.42;99971.66;10465404;27;96494;-87
2022/07/28 03:48:13;;;;;;;3.50;1.95;;;23.30;66.30;;;22.09;52.67;99981.56;10469242;27;98033;-88
2022/07/28 03:53:24;;;;;;;3.15;2.15;;;23.30;66.60;;;22.05;53.18;99997.47;10442296;27;96448;-88
2022/07/28 03:58:27;;;;;;;3.65;2.28;;;23.20;66.90;;;22.04;53.10;100000.44;10426887;27;98224;-88
2022/07/28 04:03:31;;;;;;;4.07;2.17;;;23.20;67.00;;;22.03;52.89;99987.97;10450539;27;96705;-88
2022/07/28 04:08:46;;;;;;;4.38;2.03;;;23.20;66.90;;;22.09;52.70;99976.16;10463465;27;96621;-87
2022/07/28 04:13:50;;;;;;;3.58;2.10;;;23.30;66.80;;;22.09;53.05;99982.41;10458813;27;97816;-87
2022/07/28 04:18:52;;;;;;;2.60;2.10;;;23.30;66.90;;;22.15;53.07;100003.06;10450356;27;96769;-87
2022/07/28 04:23:55;;;;;;;3.25;2.20;;;23.40;67.10;;;22.22;53.37;99999.38;10453113;27;96571;-87
2022/07/28 04:29:04;;;;;;;4.80;2.85;;;23.50;67.10;;;22.30;53.38;100010.56;10470653;27;96906;-87
2022/07/28 04:34:06;;;;;;;3.85;2.25;;;23.50;67.10;;;22.39;53.45;100010.97;10426561;27;98451;-87
2022/07/28 04:39:12;;;;;;;3.35;2.28;;;23.60;67.30;;;22.48;53.51;100009.47;10455387;27;96846;-87
2022/07/28 04:44:16;;;;;;;3.38;2.22;;;23.70;67.50;;;22.54;53.73;100004.94;10455016;27;96712;-87
2022/07/28 04:49:19;;;;;;;3.05;2.20;;;23.70;67.70;;;22.60;53.88;100009.34;10452272;27;98205;-87
2022/07/28 04:54:22;;;;;;;3.38;2.20;;;23.80;67.90;;;22.67;53.82;100007.25;10472698;27;96730;-87
2022/07/28 04:59:28;;;;;;;4.35;2.65;;;23.80;68.10;;;22.82;53.95;100015.59;10447293;27;98411;-87
2022/07/28 05:04:33;;;;;;;2.75;2.10;;;23.90;68.00;;;22.93;53.99;100014.66;10447851;27;97895;-92
2022/07/28 05:09:39;;;;;;;3.78;2.40;;;24.10;68.20;;;23.05;54.44;100011.81;10452901;27;96951;-86
2022/07/28 05:14:42;;;;;;;2.78;1.77;;;24.20;68.40;;;23.15;54.25;100017.38;10474785;27;96619;-86
2022/07/28 05:19:45;;;;;;;3.00;2.28;;;24.30;68.40;;;23.28;53.87;100020.75;10446730;27;98496;-84
2022/07/28 05:24:48;;;;;;;3.10;2.10;;;24.40;68.10;;;23.39;53.38;100022.44;10475301;27;98774;-86
2022/07/28 05:29:52;;;;;;;2.92;1.90;;;24.60;67.90;;;23.46;53.42;100031.22;10472691;27;97300;-87
2022/07/28 05:34:55;;;;;;;3.17;2.00;;;24.60;67.90;;;23.54;53.12;100033.47;10471460;27;96921;-87
2022/07/28 05:39:58;;;;;;;5.70;2.20;;;24.70;67.50;;;23.60;52.56;100029.72;10485380;27;98300;-87
2022/07/28 05:45:07;;;;;;;5.05;2.20;;;24.80;67.20;;;23.64;52.56;100036.31;10488237;27;96905;-86
2022/07/28 05:50:21;;;;;;;2.40;1.77;;;24.80;67.30;;;23.71;52.70;100042.31;10485564;27;97553;-87
2022/07/28 05:55:24;;;;;;;5.65;2.00;;;24.90;67.40;;;23.83;52.17;100052.19;10443900;27;98292;-86
2022/07/28 06:00:27;;;;;;;2.60;1.90;;;25.00;67.20;;;23.90;51.15;100055.50;10461978;27;96631;-87
2022/07/28 06:05:31;;;;;;;3.00;2.20;;;25.00;66.60;;;23.99;51.43;100062.06;10486612;27;98251;-88
2022/07/28 06:15:58;;;;;;;2.90;2.00;;;25.30;66.20;;;24.26;49.74;100068.25;10485416;27;98715;-84
2022/07/28 06:21:01;;;;;;;3.33;2.05;;;25.50;64.90;;;24.36;49.71;100059.41;10447559;27;97397;-86
2022/07/28 06:26:04;;;;;;;6.57;2.40;;;25.50;64.90;;;24.47;48.83;100071.97;10463675;27;97411;-84
2022/07/28 06:31:07;;;;;;;4.45;2.45;;;25.70;64.20;;;24.63;48.41;100062.00;10446750;27;96581;-85
2022/07/28 06:36:10;;;;;;;4.00;2.13;;;25.80;63.60;;;24.83;48.87;100070.25;10463755;27;97721;-84
2022/07/28 06:41:13;;;;;;;7.53;2.53;;;26.10;64.00;;;25.01;48.06;100076.28;10467286;27;97992;-86
2022/07/28 06:46:18;;;;;;;4.40;2.25;;;26.20;63.50;;;25.09;48.23;100083.97;10458831;27;96771;-86
2022/07/28 06:51:22;;;;;;;5.88;2.40;;;26.30;63.30;;;25.20;47.87;100079.41;10461513;27;97153;-85
2022/07/28 06:56:24;;;;;;;3.40;2.75;;;26.40;62.90;;;25.23;47.62;100078.84;10442751;27;97327;-89
2022/07/28 07:01:28;;;;;;;5.15;2.83;;;26.50;62.70;;;25.35;47.00;100087.59;10466302;27;96586;-89
2022/07/28 07:06:31;;;;;;;3.95;2.63;;;26.60;62.60;;;25.61;46.24;100085.75;10448484;27;96473;-89
2022/07/28 07:11:35;;;;;;;6.20;2.58;;;26.80;61.70;;;25.79;46.19;100089.84;10482884;27;96536;-90
2022/07/28 07:16:38;;;;;;;6.43;3.03;;;27.00;61.50;;;25.80;45.53;100072.47;10457980;27;96642;-88
2022/07/28 07:21:41;;;;;;;3.60;2.40;;;27.10;61.00;;;25.80;45.27;100080.63;10469735;27;96684;-86
2022/07/28 07:26:44;;;;;;;6.07;2.60;;;27.10;60.80;;;25.87;45.49;100075.72;10480745;27;96644;-88
2022/07/28 07:31:47;;;;;;;3.00;2.58;;;27.10;60.80;;;26.01;45.05;100084.97;10468630;27;98140;-84
2022/07/28 07:36:55;;;;;;;3.55;2.25;;;27.20;60.40;;;26.10;44.75;100082.53;10448496;27;96676;-91
2022/07/28 07:41:57;;;;;;;5.18;2.88;;;27.30;60.00;;;26.12;44.46;100083.88;10464904;27;96712;-87
2022/07/28 07:47:02;;;;;;;4.80;2.67;;;27.40;59.70;;;26.24;43.93;100078.16;10450540;27;97502;-87
2022/07/28 07:52:05;;;;;;;6.30;3.00;;;27.50;59.50;;;26.31;44.55;100081.41;10450246;27;98956;-88
2022/07/28 07:57:09;;;;;;;6.10;2.70;;;27.50;59.70;;;26.39;44.21;100083.59;10471785;27;96654;-87
2022/07/28 08:02:12;;;;;;;3.65;2.60;;;27.60;59.70;;;26.52;43.99;100073.25;10431328;27;97423;-88
2022/07/28 08:07:15;;;;;;;3.00;2.55;;;27.70;59.70;;;26.69;43.88;100076.47;10449281;27;98413;-88
2022/07/28 08:12:18;;;;;;;4.82;2.78;;;27.80;59.30;;;26.78;43.18;100065.78;10425858;27;96539;-88
2022/07/28 08:17:27;;;;;;;4.18;2.33;;;28.00;58.90;;;26.94;42.92;100068.19;10442272;27;96623;-88
2022/07/28 08:22:30;;;;;;;4.78;2.63;;;28.10;58.60;;;27.14;42.01;100074.66;10454625;27;98562;-88
2022/07/28 08:27:32;;;;;;;3.53;2.40;;;28.20;58.10;;;27.41;41.21;100069.63;10457067;27;97561;-88
2022/07/28 08:32:35;;;;;;;4.80;2.53;;;28.40;57.50;;;27.63;40.81;100068.38;10456589;27;96678;-89
2022/07/28 08:37:38;;;;;;;5.78;2.70;;;28.70;57.20;;;27.83;40.23;100068.25;10398786;27;96528;-89
2022/07/28 08:42:59;;;;;;;4.15;2.42;;;28.80;56.40;;;27.99;39.66;100058.00;10419305;27;96900;-90
2022/07/28 08:48:05;;;;;;;3.88;2.72;;;29.00;56.20;;;28.04;38.36;100052.50;10389792;27;96783;-92
2022/07/28 08:53:13;;;;;;;;;;;29.10;55.00;;;28.11;38.21;100050.25;10433299;27;97784;-91
2022/07/28 08:58:17;;;;;;;5.00;2.47;;;29.30;54.60;;;28.30;38.11;100057.72;10404427;27;96695;-91
2022/07/28 09:03:20;;;;;;;6.10;2.72;;;29.40;54.40;;;28.27;37.69;100051.72;10414869;27;97337;-90
2022/07/28 09:08:23;;;;;;;4.85;2.50;;;29.50;53.40;;;28.34;36.89;100048.69;10412011;27;97597;-90
2022/07/28 09:13:26;;;;;;;3.97;2.33;;;29.60;53.20;;;28.39;37.26;100056.84;10453625;27;96506;-90
2022/07/28 09:18:29;;;;;;;3.97;2.60;;;29.70;52.90;;;28.57;37.15;100043.53;10430561;27;96606;-90
2022/07/28 09:23:48;;;;;;;3.20;1.90;;;29.80;52.70;;;28.67;37.10;100044.22;10412535;27;98274;-89
2022/07/28 09:28:57;;;;;;;2.33;2.05;;;29.90;52.80;;;28.90;36.03;100039.81;10396658;27;96648;-91
2022/07/28 09:34:03;;;;;;;4.15;2.50;;;30.10;51.90;;;29.01;35.36;100030.41;10441712;27;96726;-90
2022/07/28 09:39:07;;;;;;;2.38;2.00;;;30.20;51.40;;;29.30;35.56;100032.19;10438834;27;97992;-92
2022/07/28 09:44:20;;;;;;;2.78;1.85;;;30.40;51.60;;;29.47;33.99;100023.47;10405031;27;96820;-91
2022/07/28 09:49:41;;;;;;;3.85;2.22;;;30.60;50.80;;;29.56;34.14;100016.22;10442006;27;97476;-90
2022/07/28 09:55:06;;;;;;;3.40;2.28;;;30.80;50.40;;;29.82;33.85;100013.88;10436197;27;96647;-90
2022/07/28 10:00:13;;;;;;;2.45;2.00;;;31.00;50.20;;;30.08;33.33;100019.72;10423823;27;96599;-90
2022/07/28 10:05:18;;;;;;;3.83;1.90;;;31.20;49.60;;;30.09;32.98;100005.72;10403598;28;96716;-89
2022/07/28 10:10:21;;;;;;;6.13;2.17;;;31.30;49.00;;;30.11;32.87;100006.28;10426752;27;98460;-92
2022/07/28 10:20:52;;;;;;;3.25;1.98;;;31.50;48.90;;;30.46;31.55;99989.41;10459912;27;96664;-92
2022/07/28 10:25:57;;;;;;;4.20;2.00;;;31.70;48.00;;;30.65;31.30;99982.72;10451513;27;96638;-93
2022/07/28 10:31:03;;;;;;;5.72;2.10;;;31.90;47.90;;;30.45;30.77;99987.81;10432197;27;96630;-91
2022/07/28 10:36:08;;;;;;;3.40;2.15;;;31.80;46.80;;;30.70;31.38;99987.28;10427981;27;96582;-92
2022/07/28 10:41:13;;;;;;;3.15;2.00;;;32.00;47.30;;;30.89;30.94;99973.47;10403521;27;96545;-95
2022/07/28 10:46:17;;;;;;;5.18;1.98;;;32.20;47.30;;;30.89;31.10;99979.78;10425450;27;97369;-92
2022/07/28 10:51:20;;;;;;;6.72;2.30;;;32.20;47.00;;;30.92;31.56;99978.31;10386860;28;97014;-95
2022/07/28 10:56:32;;;;;;;4.82;2.58;;;32.20;47.20;;;30.75;31.26;99980.91;10429362;27;96560;-95
2022/07/28 11:01:40;;;;;;;4.00;2.30;;;32.10;47.20;;;30.63;31.78;99973.97;10403151;28;96642;-93
2022/07/28 11:07:12;;;;;;;4.38;2.10;;;32.00;47.40;;;31.04;31.51;99964.88;10389359;27;96647;-96
2022/07/28 11:12:35;;;;;;;4.78;2.20;;;32.20;47.60;;;31.47;31.61;99950.69;10401419;28;97324;-92
2022/07/28 11:17:39;;;;;;;3.22;2.28;;;32.70;47.60;;;31.88;30.36;99949.69;10447419;27;96589;-89
2022/07/28 11:22:43;;;;;;;2.70;2.30;;;33.10;46.90;;;31.98;29.84;99959.59;10405916;27;99291;-93
2022/07/28 11:27:50;;;;;;;3.45;2.10;;;33.20;45.90;;;32.04;29.20;99958.31;10405861;27;97344;-92
2022/07/28 11:32:53;;;;;;;2.83;2.00;;;33.20;45.60;;;32.09;28.74;99945.25;10436086;27;97413;-92
2022/07/28 11:38:00;;;;;;;4.38;2.35;;;33.30;45.20;;;32.33;28.76;99942.09;10441157;27;97423;-92
2022/07/28 11:43:25;;;;;;;3.03;1.90;;;33.50;45.10;;;32.11;27.79;99947.69;10454240;27;96516;-95
2022/07/28 11:48:41;;;;;;;3.28;2.10;;;33.50;44.00;;;31.93;28.48;99944.06;10501417;27;96369;-91
2022/07/28 11:53:51;;;;;;;2.78;1.98;;;33.30;44.30;;;32.04;28.70;99941.84;10451227;27;96422;-93
2022/07/28 11:59:01;;;;;;;2.15;1.75;;;33.30;44.80;;;31.97;28.57;99939.56;10431548;27;97378;-91
2022/07/28 12:04:15;;;;;;;3.97;2.10;;;33.30;44.60;;;31.77;28.95;99929.06;10456497;27;96887;-91
2022/07/28 12:09:19;;;;;;;4.38;1.95;;;33.10;44.80;;;31.95;29.12;99926.09;10443246;27;96943;-92
2022/07/28 12:14:28;;;;;;;3.80;1.98;;;33.20;44.90;;;31.89;28.72;99929.31;10448339;27;96783;-92
2022/07/28 12:19:32;;;;;;;3.75;2.20;;;33.20;44.70;;;31.53;28.54;99921.97;10458299;27;98763;-92
2022/07/28 12:24:35;;;;;;;4.78;2.10;;;33.00;44.50;;;31.40;29.09;99928.38;10481309;27;97335;-92
2022/07/28 12:30:01;;;;;;;3.63;1.83;;;32.70;44.70;;;31.48;28.86;99921.31;10452863;27;96744;-91
2022/07/28 12:35:04;;;;;;;5.03;1.90;;;32.90;44.70;;;31.44;30.21;99921.94;10448429;27;96631;-89
2022/07/28 12:40:11;;;;;;;4.22;2.38;;;32.80;45.20;;;31.58;29.89;99921.84;10460103;27;98654;-89
2022/07/28 12:45:14;;;;;;;4.15;2.00;;;32.90;45.50;;;31.58;29.92;99915.56;10477730;27;96736;-89
2022/07/28 12:50:18;;;;;;;2.45;2.10;;;32.80;45.70;;;31.42;30.00;99923.38;10484737;27;98818;-88
2022/07/28 12:55:25;;;;;;;3.03;2.10;;;32.60;45.80;;;31.33;29.94;99915.09;10453971;27;96830;-89
2022/07/28 13:00:34;;;;;;;5.55;2.20;;;32.40;45.70;;;31.56;30.14;99909.56;10462498;27;98704;-89
2022/07/28 13:11:00;;;;;;;2.65;2.10;;;33.00;45.80;;;32.66;28.25;99901.25;10466824;27;98748;-84
2022/07/28 13:16:29;;;;;;;2.72;2.03;;;33.50;44.80;;;32.68;28.06;99890.72;10460392;27;96912;-88
2022/07/28 13:21:43;;;;;;;4.70;1.90;;;33.70;44.30;;;33.04;27.82;99892.38;10459542;27;96975;-88
2022/07/28 13:27:02;;;;;;;2.85;1.90;;;33.90;44.50;;;33.43;27.32;99890.56;10447153;27;97260;-88
2022/07/28 13:32:06;;;;;;;3.90;2.20;;;34.40;44.10;;;33.80;26.69;99887.03;10437627;27;96732;-88
2022/07/28 13:37:13;;;;;;;4.05;2.00;;;34.80;43.50;;;34.04;26.38;99880.16;10419505;27;96681;-88
2022/07/28 13:42:17;;;;;;;3.03;2.10;;;35.10;42.80;;;34.21;25.83;99873.75;10412394;27;97166;-90
2022/07/28 13:47:20;;;;;;;3.40;1.85;;;35.30;42.70;;;34.37;25.88;99868.44;10427078;27;96758;-88
2022/07/28 13:52:23;;;;;;;4.25;2.05;;;35.40;42.40;;;34.33;25.55;99877.38;10401389;27;97479;-89
2022/07/28 13:57:36;;;;;;;4.55;2.00;;;35.50;42.30;;;34.25;25.88;99872.75;10428608;27;96700;-89
2022/07/28 14:02:47;;;;;;;3.10;1.90;;;35.40;42.60;;;34.33;25.69;99869.13;10415048;27;97155;-90
2022/07/28 14:07:50;;;;;;;3.70;2.00;;;35.40;42.00;;;33.78;25.67;99861.78;10403275;27;98405;-88
2022/07/28 14:12:53;;;;;;;8.65;1.88;;;35.20;42.00;;;33.11;26.35;99865.19;10424493;27;98150;-90
2022/07/28 14:17:56;;;;;;;4.03;2.00;;;34.50;42.20;;;32.55;27.18;99868.88;10442894;27;97053;-88
2022/07/28 14:23:00;;;;;;;3.17;1.88;;;33.80;42.70;;;32.20;27.82;99866.84;10411446;27;96808;-88
2022/07/28 14:28:04;;;;;;;2.72;1.85;;;33.40;43.40;;;32.42;28.22;99868.72;10421322;27;97355;-88
2022/07/28 14:33:07;;;;;;;2.80;2.08;;;33.40;44.20;;;32.72;27.90;99864.19;10460153;27;97998;-88
2022/07/28 14:38:10;;;;;;;4.75;1.85;;;33.60;43.80;;;32.61;27.17;99857.41;10487079;27;97199;-87
2022/07/28 14:43:32;;;;;;;3.10;1.83;;;33.60;43.30;;;32.28;27.93;99862.53;10475293;27;97651;-89
2022/07/28 14:48:35;;;;;;;2.33;1.60;;;33.30;43.70;;;32.05;28.38;99866.50;10460382;27;98325;-90
2022/07/28 14:53:38;;;;;;;3.95;2.08;;;33.10;44.30;;;31.80;28.75;99862.53;10474676;27;96948;-88
2022/07/28 14:58:53;;;;;;;3.95;2.20;;;32.90;44.50;;;31.61;29.10;99863.56;10465527;27;98176;-88
2022/07/28 15:03:56;;;;;;;2.20;1.80;;;32.70;44.70;;;31.44;29.45;99868.97;10462714;27;96638;-89
2022/07/28 15:09:00;;;;;;;3.97;2.10;;;32.60;44.80;;;31.36;29.98;99864.22;10448414;27;98926;-88
2022/07/28 15:14:04;;;;;;;4.20;1.80;;;32.50;45.40;;;31.43;30.97;99857.19;10468648;27;96763;-88
2022/07/28 15:19:07;;;;;;;10.38;2.22;;;32.50;46.50;;;31.87;29.99;99854.66;10442680;27;96561;-89
2022/07/28 15:24:10;;;;;;;5.03;2.20;;;32.80;46.40;;;32.27;27.98;99851.81;10427790;27;96425;-90
2022/07/28 15:29:13;;;;;;;3.60;1.80;;;33.30;44.40;;;32.54;27.53;99839.75;10442294;27;96749;-88
2022/07/28 15:34:16;;;;;;;2.25;1.70;;;33.70;43.50;;;32.65;27.17;99838.31;10429533;27;96502;-88
2022/07/28 15:39:21;;;;;;;2.58;1.77;;;33.90;43.00;;;32.67;27.65;99842.34;10441056;27;96712;-88
2022/07/28 15:44:25;;;;;;;3.80;1.80;;;33.90;43.20;;;32.67;27.65;99839.59;10440390;27;96496;-88
2022/07/28 15:49:28;;;;;;;4.00;1.90;;;34.00;43.40;;;32.65;27.67;99836.38;10458097;27;96549;-88
2022/07/28 15:54:31;;;;;;;2.15;1.80;;;33.90;43.30;;;32.45;27.87;99831.53;10430156;27;97395;-89
2022/07/28 15:59:35;;;;;;;3.72;2.35;;;33.70;43.30;;;32.52;27.96;99826.34;10430484;27;97450;-89
2022/07/28 16:04:52;;;;;;;4.70;2.10;;;33.70;43.50;;;32.54;27.78;99835.06;10457130;27;97403;-88
2022/07/28 16:09:56;;;;;;;4.75;2.08;;;33.90;43.40;;;32.32;27.98;99829.69;10455968;27;96489;-88
2022/07/28 16:14:59;;;;;;;2.80;1.70;;;33.70;43.30;;;32.02;28.50;99834.97;10439287;27;97106;-88
2022/07/28 16:20:03;;;;;;;3.78;1.80;;;33.40;43.70;;;31.69;28.82;99829.81;10425602;27;97273;-88
2022/07/28 16:25:15;;;;;;;4.32;2.05;;;33.10;43.80;;;31.50;29.52;99829.25;10436253;27;97455;-88
2022/07/28 16:30:19;;;;;;;2.83;1.90;;;32.90;44.30;;;31.63;29.31;99831.09;10399973;28;96551;-89
2022/07/28 16:35:22;;;;;;;6.38;2.10;;;33.00;44.40;;;31.83;29.44;99834.41;10415619;27;96663;-88
2022/07/28 16:40:25;;;;;;;3.47;2.00;;;33.10;44.60;;;32.00;29.15;99841.91;10410689;27;96568;-88
2022/07/28 16:45:29;;;;;;;6.20;2.08;;;33.30;44.20;;;32.18;29.15;99838.88;10431480;27;96538;-88
2022/07/28 16:50:33;;;;;;;3.53;1.90;;;33.60;44.10;;;32.37;29.10;99841.38;10432324;27;96561;-87
2022/07/28 16:55:36;;;;;;;3.88;1.75;;;33.70;44.30;;;32.40;28.50;99842.69;10398059;27;96484;-89
2022/07/28 17:00:39;;;;;;;4.53;1.92;;;33.80;43.90;;;32.32;28.38;99838.72;10381050;28;96541;-88
2022/07/28 17:05:43;;;;;;;2.45;1.85;;;33.80;43.90;;;32.16;28.82;99838.41;10415701;27;97568;-89
2022/07/28 17:10:47;;;;;;;2.75;2.00;;;33.60;44.00;;;31.94;28.65;99844.00;10423717;27;97379;-88
2022/07/28 17:15:54;;;;;;;4.57;2.13;;;33.40;44.10;;;31.72;29.38;99836.59;10414689;27;96563;-88
2022/07/28 17:20:57;;;;;;;4.40;1.63;;;33.10;44.40;;;31.48;29.59;99847.16;10416861;27;96576;-89
2022/07/28 17:26:04;;;;;;;5.70;2.20;;;32.90;44.50;;;31.21;29.92;99851.69;10399103;27;96702;-89
2022/07/28 17:31:27;;;;;;;2.40;1.90;;;32.70;44.50;;;30.99;30.14;99849.75;10426538;27;96582;-89
2022/07/28 17:36:35;;;;;;;2.97;1.80;;;32.40;44.90;;;30.86;30.75;99850.63;10446075;27;96732;-89
2022/07/28 17:41:40;;;;;;;5.75;1.92;;;32.20;45.20;;;30.70;31.34;99854.84;10428840;27;96764;-88
2022/07/28 17:46:45;;;;;;;5.88;2.40;;;32.00;45.90;;;30.42;32.11;99848.63;10445509;27;96455;-88
2022/07/28 17:51:48;;;;;;;3.72;1.80;;;31.70;46.70;;;30.21;32.19;99862.75;10444721;27;96434;-88
2022/07/28 17:56:51;;;;;;;5.10;2.45;;;31.40;47.10;;;29.92;32.77;99867.69;10430068;27;96567;-87
2022/07/28 18:01:55;;;;;;;4.97;2.38;;;31.10;47.30;;;29.69;32.55;99869.50;10399593;27;96766;-88
2022/07/28 18:06:57;;;;;;;3.00;1.98;;;30.90;47.20;;;29.48;32.62;99872.59;10444699;27;96550;-87
2022/07/28 18:12:00;;;;;;;3.78;2.35;;;30.60;47.30;;;29.25;33.28;99868.09;10428490;27;96466;-87
2022/07/28 18:17:03;;;;;;;4.80;2.10;;;30.40;47.60;;;29.00;33.83;99872.06;10427868;27;96434;-87
2022/07/28 18:22:06;;;;;;;2.65;1.88;;;30.10;48.40;;;28.74;33.82;99868.88;10437822;27;97299;-85
2022/07/28 18:27:09;;;;;;;3.35;1.95;;;29.90;48.10;;;28.51;33.86;99885.06;10419338;27;97349;-86
2022/07/28 18:32:14;;;;;;;4.30;2.10;;;29.70;48.30;;;28.29;34.16;99890.22;10420337;27;98745;-87
2022/07/28 18:37:16;;;;;;;3.55;2.20;;;29.40;48.50;;;28.08;34.51;99894.34;10437738;27;97348;-87
2022/07/28 18:42:20;;;;;;;2.75;1.75;;;29.20;48.80;;;27.89;34.63;99906.00;10433650;27;96768;-87
2022/07/28 18:47:26;;;;;;;2.67;1.60;;;29.00;48.90;;;27.69;34.95;99901.56;10407658;27;96658;-87
2022/07/28 18:52:29;;;;;;;3.10;1.80;;;28.80;49.10;;;27.51;35.53;99904.97;10435647;27;96680;-87
2022/07/28 18:57:33;;;;;;;2.55;1.98;;;28.60;49.40;;;27.32;35.89;99923.97;10430202;27;96576;-86
2022/07/28 19:02:37;;;;;;;4.15;1.92;;;28.50;49.80;;;27.23;36.02;99935.75;10409362;27;97842;-87
2022/07/28 19:07:40;;;;;;;4.60;2.00;;;28.40;49.90;;;27.08;36.17;99937.50;10416821;27;97130;-87
2022/07/28 19:12:45;;;;;;;2.65;2.00;;;28.30;50.00;;;26.87;36.41;99938.69;10429834;27;96719;-86
2022/07/28 19:17:48;;;;;;;3.85;1.92;;;28.10;50.30;;;26.68;36.65;99927.63;10399862;27;98585;-87
2022/07/28 19:23:11;;;;;;;2.40;1.70;;;28.00;50.20;;;26.50;37.17;99931.00;10413177;27;96598;-86
2022/07/28 19:28:14;;;;;;;1.70;1.60;;;27.80;50.60;;;26.38;37.28;99932.09;10429154;27;97522;-87
2022/07/28 19:33:20;;;;;;;1.88;1.63;;;27.60;50.80;;;26.27;37.48;99935.13;10408988;27;97491;-87
2022/07/28 19:38:23;;;;;;;3.47;1.60;;;27.50;51.00;;;26.16;38.06;99942.56;10411311;27;96998;-87
2022/07/28 19:43:26;;;;;;;2.65;2.08;;;27.40;51.40;;;26.01;38.41;99943.41;10423446;27;96791;-86
2022/07/28 19:48:28;;;;;;;2.90;2.50;;;27.30;51.70;;;25.83;39.23;99938.53;10432509;27;96690;-87
2022/07/28 19:53:31;;;;;;;2.90;2.25;;;27.10;52.20;;;25.67;39.64;99945.88;10435912;27;98541;-86
2022/07/28 19:58:38;;;;;;;3.30;1.90;;;26.90;52.60;;;25.52;39.78;99951.31;10428644;27;97219;-87
2022/07/28 20:03:41;;;;;;;2.22;1.70;;;26.70;52.90;;;25.36;40.18;99958.66;10417867;27;97421;-86
2022/07/28 20:09:05;;;;;;;8.52;2.00;;;26.60;53.20;;;25.22;40.37;99955.66;10425555;27;98392;-86
2022/07/28 20:14:07;;;;;;;4.75;2.10;;;26.50;53.50;;;25.11;40.94;99966.78;10422849;27;98204;-87
2022/07/28 20:19:10;;;;;;;2.42;1.73;;;26.30;53.90;;;24.97;41.64;99969.19;10403808;27;98237;-83
2022/07/28 20:24:14;;;;;;;4.07;2.00;;;26.20;54.20;;;24.87;41.92;99978.13;10412272;27;96683;-83
2022/07/28 20:29:18;;;;;;;2.20;2.00;;;26.10;54.50;;;24.70;42.33;99972.91;10427961;27;96584;-82
2022/07/28 20:34:21;;;;;;;3.33;2.10;;;26.00;54.90;;;24.60;42.96;99977.50;10435187;27;96706;-85
2022/07/28 20:39:24;;;;;;;2.08;1.65;;;25.90;55.10;;;24.51;43.03;99979.91;10401441;27;97549;-84
2022/07/28 20:44:46;;;;;;;2.20;1.83;;;25.80;55.40;;;24.43;43.39;99986.66;10423109;27;96604;-84
2022/07/28 20:49:49;;;;;;;4.88;3.70;;;25.70;55.60;;;24.38;43.25;99996.66;10447709;27;98230;-84
2022/07/28 20:54:52;;;;;;;3.90;3.03;;;25.60;55.70;;;24.26;43.66;99994.94;10407306;27;98517;-84
2022/07/28 20:59:56;;;;;;;3.63;2.67;;;25.50;56.10;;;24.15;43.85;99997.88;10433607;27;98730;-83
2022/07/28 21:04:59;;;;;;;4.93;3.95;;;25.30;56.40;;;24.01;45.03;100011.09;10413654;27;96920;-85
2022/07/28 21:10:04;;;;;;;4.25;2.85;;;25.20;56.80;;;23.90;44.75;100015.63;10417834;27;96815;-84
2022/07/28 21:15:08;;;;;;;3.22;2.67;;;25.20;57.00;;;23.88;44.76;100022.38;10422629;27;96653;-84
2022/07/28 21:20:11;;;;;;;3.78;2.83;;;25.10;56.90;;;23.83;45.01;100022.34;10427148;27;96923;-84
2022/07/28 21:25:14;;;;;;;3.70;2.85;;;25.00;57.60;;;23.70;44.92;100020.88;10409923;27;96665;-84
2022/07/28 21:30:17;;;;;;;3.30;2.42;;;24.90;57.30;;;23.60;45.05;100028.91;10421482;27;97195;-84